KMWM

Windom Municipal Airport

Windom, Minnesota, USA
METAR KMWM 141655Z AUTO 21007KT 10SM CLR 01/M06 A3019 RMK AO2
Observed Flight Rules
Dec-14 @ 16:55 UTC (18 minutes ago) Visual Flight Rules
Wind Visibility Clouds
210° at 7 knots 10 miles
  • Clear skies
Temperatures Readings
Current 1°C / 34°F
Dewpoint -6°C / 21°F
Humidity 60%
Altimeter 30.19" Hg
Pressure 1022 hPa
Elevation 430
METAR KMWM 141655Z AUTO 21007KT 10SM CLR 01/M06 A3019 RMK AO2
Observed Flight Rules
Dec-14 @ 16:55 UTC
(18 minutes ago)
VFR
Wind Visibility
210° at 7 knots 10 miles
Clouds
  • Clear skies
Temperature Dewpoint
1°C / 34°F -6°C / 21°F
Humidity Altimeter Pressure
60% 30.19" Hg 1022 hPa